Time;durP1;ratioP1;P1;durP2;ratioP2;P2;SDS_P1;SDS_P2;PMS_P1;PMS_P2;Temp;Humidity;BMP_temperature;BMP_pressure;BME280_temperature;BME280_humidity;BME280_pressure;Samples;Min_cycle;Max_cycle;Signal;HPM_P1;HPM_P2
2023/08/13 00:00:17;;;;;;;70.70;66.30;;;;;;;;;;5081032;28;20442;-86
2023/08/13 00:02:44;;;;;;;68.63;64.40;;;;;;;;;;5081969;28;20497;-87
2023/08/13 00:05:11;;;;;;;64.27;60.70;;;;;;;;;;5082134;28;20462;-86
2023/08/13 00:07:38;;;;;;;67.17;63.07;;;;;;;;;;5081868;28;20449;-87
2023/08/13 00:10:06;;;;;;;67.30;63.00;;;;;;;;;;5080938;28;20450;-86
2023/08/13 00:12:33;;;;;;;72.17;67.73;;;;;;;;;;5082348;28;20425;-87
2023/08/13 00:15:02;;;;;;;65.63;61.37;;;;;;;;;;5077631;28;20416;-87
2023/08/13 00:17:29;;;;;;;71.50;66.93;;;;;;;;;;5079084;28;20405;-87
2023/08/13 00:19:56;;;;;;;69.50;65.40;;;;;;;;;;5081513;28;20427;-87
2023/08/13 00:22:24;;;;;;;71.23;66.70;;;;;;;;;;5078986;28;20482;-86
2023/08/13 00:24:53;;;;;;;62.97;58.83;;;;;;;;;;5079845;28;20453;-87
2023/08/13 00:27:21;;;;;;;60.67;56.67;;;;;;;;;;5083991;28;20476;-86
2023/08/13 00:29:48;;;;;;;63.10;58.50;;;;;;;;;;5081688;28;20420;-87
2023/08/13 00:32:16;;;;;;;63.87;59.87;;;;;;;;;;5079145;28;20485;-86
2023/08/13 00:34:43;;;;;;;58.87;54.90;;;;;;;;;;5081656;28;20427;-86
2023/08/13 00:37:10;;;;;;;63.57;59.03;;;;;;;;;;5083748;28;20469;-87
2023/08/13 00:39:37;;;;;;;61.20;56.50;;;;;;;;;;5082452;28;20456;-86
2023/08/13 00:42:05;;;;;;;61.17;56.70;;;;;;;;;;5081337;28;20567;-86
2023/08/13 00:44:32;;;;;;;58.73;55.03;;;;;;;;;;5081689;28;20839;-87
2023/08/13 00:46:59;;;;;;;58.43;54.53;;;;;;;;;;5078899;28;20823;-86
2023/08/13 00:49:28;;;;;;;55.90;51.90;;;;;;;;;;5079899;28;20420;-86
2023/08/13 00:51:55;;;;;;;55.27;51.40;;;;;;;;;;5079050;28;20469;-86
2023/08/13 00:54:33;;;;;;;57.20;53.20;;;;;;;;;;5080821;28;20428;-86
2023/08/13 00:57:00;;;;;;;55.13;51.63;;;;;;;;;;5081618;28;20484;-86
2023/08/13 00:59:28;;;;;;;55.77;52.10;;;;;;;;;;5094668;28;20454;-87
2023/08/13 01:01:55;;;;;;;55.63;51.23;;;;;;;;;;5081024;28;20473;-86
2023/08/13 01:04:22;;;;;;;56.97;53.27;;;;;;;;;;5079781;28;20450;-86
2023/08/13 01:06:56;;;;;;;53.97;49.87;;;;;;;;;;5082598;28;20442;-86
2023/08/13 01:09:26;;;;;;;53.90;50.00;;;;;;;;;;5081959;28;20928;-85
2023/08/13 01:11:58;;;;;;;54.67;50.93;;;;;;;;;;5080025;28;20466;-86
2023/08/13 01:14:27;;;;;;;54.07;50.57;;;;;;;;;;5080286;28;20424;-87
2023/08/13 01:16:54;;;;;;;52.90;49.60;;;;;;;;;;5083172;28;20442;-86
2023/08/13 01:19:21;;;;;;;54.63;51.07;;;;;;;;;;5082628;28;20468;-86
2023/08/13 01:21:49;;;;;;;52.60;49.17;;;;;;;;;;5079794;28;20477;-86
2023/08/13 01:24:17;;;;;;;50.00;46.80;;;;;;;;;;5079175;28;20451;-86
2023/08/13 01:26:49;;;;;;;50.40;47.00;;;;;;;;;;5078064;28;20442;-86
2023/08/13 01:29:19;;;;;;;53.73;49.47;;;;;;;;;;5077521;28;20501;-86
2023/08/13 01:31:50;;;;;;;54.83;51.13;;;;;;;;;;5080993;28;20412;-86
2023/08/13 01:34:18;;;;;;;55.93;51.60;;;;;;;;;;5084658;28;20428;-86
2023/08/13 01:36:46;;;;;;;57.50;53.03;;;;;;;;;;5082210;28;20902;-86
2023/08/13 01:39:13;;;;;;;54.20;50.53;;;;;;;;;;5078757;28;20445;-86
2023/08/13 01:41:46;;;;;;;55.43;51.07;;;;;;;;;;5080195;28;20412;-86
2023/08/13 01:44:14;;;;;;;54.00;49.57;;;;;;;;;;5085770;28;20484;-87
2023/08/13 01:46:41;;;;;;;54.13;50.00;;;;;;;;;;5086452;28;20467;-86
2023/08/13 01:49:08;;;;;;;53.40;49.40;;;;;;;;;;5081697;28;20524;-87
2023/08/13 01:51:37;;;;;;;57.20;52.60;;;;;;;;;;5083333;28;20392;-86
2023/08/13 01:54:04;;;;;;;55.13;50.70;;;;;;;;;;5082191;28;20439;-86
2023/08/13 01:56:31;;;;;;;57.63;52.77;;;;;;;;;;5082297;28;20452;-86
2023/08/13 01:59:01;;;;;;;53.37;48.83;;;;;;;;;;5086245;28;20434;-86
2023/08/13 02:01:28;;;;;;;50.73;46.93;;;;;;;;;;5081789;28;20465;-86
2023/08/13 02:03:56;;;;;;;52.80;49.00;;;;;;;;;;5089969;28;20477;-86
2023/08/13 02:06:23;;;;;;;52.73;48.87;;;;;;;;;;5087688;28;20452;-86
2023/08/13 02:08:50;;;;;;;52.63;48.83;;;;;;;;;;5083297;28;21006;-86
2023/08/13 02:11:17;;;;;;;51.67;47.87;;;;;;;;;;5081970;28;20473;-86
2023/08/13 02:13:44;;;;;;;55.33;51.27;;;;;;;;;;5082361;28;20461;-86
2023/08/13 02:16:12;;;;;;;52.53;47.90;;;;;;;;;;5081965;28;20435;-86
2023/08/13 02:18:40;;;;;;;50.20;46.27;;;;;;;;;;5081343;28;20454;-86
2023/08/13 02:21:07;;;;;;;50.10;46.17;;;;;;;;;;5084985;28;20477;-86
2023/08/13 02:23:34;;;;;;;46.67;43.33;;;;;;;;;;5081469;28;20476;-86
2023/08/13 02:26:01;;;;;;;48.20;44.37;;;;;;;;;;5081572;28;20445;-86
2023/08/13 02:28:28;;;;;;;50.90;47.13;;;;;;;;;;5082553;28;20485;-87
2023/08/13 02:30:55;;;;;;;47.10;43.70;;;;;;;;;;5081570;28;20819;-86
2023/08/13 02:33:23;;;;;;;47.43;43.60;;;;;;;;;;5082108;28;20440;-86
2023/08/13 02:35:50;;;;;;;48.27;44.73;;;;;;;;;;5083344;28;20457;-86
2023/08/13 02:38:18;;;;;;;44.53;41.53;;;;;;;;;;5083191;28;20441;-86
2023/08/13 02:40:45;;;;;;;45.07;42.07;;;;;;;;;;5082153;28;20536;-86
2023/08/13 02:43:12;;;;;;;45.20;41.90;;;;;;;;;;5080975;28;20482;-86
2023/08/13 02:45:39;;;;;;;48.13;44.53;;;;;;;;;;5081303;28;20457;-86
2023/08/13 02:48:07;;;;;;;45.97;42.80;;;;;;;;;;5081898;28;20441;-86
2023/08/13 02:50:35;;;;;;;45.10;42.00;;;;;;;;;;5082642;28;20473;-86
2023/08/13 02:53:02;;;;;;;44.10;41.10;;;;;;;;;;5079916;28;20482;-87
2023/08/13 02:55:29;;;;;;;40.87;38.07;;;;;;;;;;5081701;28;20433;-86
2023/08/13 02:57:56;;;;;;;43.60;40.70;;;;;;;;;;5081785;28;20456;-86
2023/08/13 03:00:23;;;;;;;43.27;40.30;;;;;;;;;;5081750;28;20446;-86
2023/08/13 03:02:50;;;;;;;47.80;43.90;;;;;;;;;;5081675;28;20472;-86
2023/08/13 03:05:18;;;;;;;45.87;42.27;;;;;;;;;;5081682;28;20438;-85
2023/08/13 03:07:46;;;;;;;46.27;42.97;;;;;;;;;;5083570;28;20458;-86
2023/08/13 03:10:13;;;;;;;46.70;43.23;;;;;;;;;;5081938;28;20503;-86
2023/08/13 03:12:40;;;;;;;50.33;46.33;;;;;;;;;;5081946;28;22179;-86
2023/08/13 03:15:08;;;;;;;49.33;45.67;;;;;;;;;;5081559;28;20446;-86
2023/08/13 03:17:35;;;;;;;48.77;45.23;;;;;;;;;;5079998;28;20947;-86
2023/08/13 03:20:03;;;;;;;50.20;46.10;;;;;;;;;;5079895;28;20462;-86
2023/08/13 03:22:30;;;;;;;51.87;47.70;;;;;;;;;;5079884;28;20525;-86
2023/08/13 03:24:58;;;;;;;51.77;47.90;;;;;;;;;;5079616;28;20445;-86
2023/08/13 03:27:26;;;;;;;51.17;46.70;;;;;;;;;;5079974;28;20454;-86
2023/08/13 03:29:53;;;;;;;51.03;47.17;;;;;;;;;;5079121;28;20821;-86
2023/08/13 03:32:20;;;;;;;49.13;45.13;;;;;;;;;;5079246;28;20470;-86
2023/08/13 03:34:47;;;;;;;52.83;48.97;;;;;;;;;;5079094;28;20477;-86
2023/08/13 03:37:14;;;;;;;51.10;47.40;;;;;;;;;;5079555;28;20474;-87
2023/08/13 03:39:41;;;;;;;53.37;49.27;;;;;;;;;;5079154;28;20532;-87
2023/08/13 03:42:09;;;;;;;52.60;48.97;;;;;;;;;;5079109;28;20519;-86
2023/08/13 03:44:36;;;;;;;48.37;45.37;;;;;;;;;;5079068;28;20465;-86
2023/08/13 03:47:03;;;;;;;49.70;46.07;;;;;;;;;;5079747;28;20450;-86
2023/08/13 03:49:30;;;;;;;51.97;48.20;;;;;;;;;;5079642;28;20812;-86
2023/08/13 03:51:57;;;;;;;47.63;44.30;;;;;;;;;;5079281;28;20458;-86
2023/08/13 03:54:24;;;;;;;49.40;45.47;;;;;;;;;;5078644;28;20458;-86
2023/08/13 03:56:51;;;;;;;49.40;45.57;;;;;;;;;;5079054;28;20444;-86
2023/08/13 03:59:20;;;;;;;49.67;45.80;;;;;;;;;;5079507;28;20442;-86
2023/08/13 04:01:47;;;;;;;51.57;47.67;;;;;;;;;;5078907;28;20442;-86
2023/08/13 04:04:14;;;;;;;50.37;46.53;;;;;;;;;;5079061;28;20489;-86
2023/08/13 04:06:43;;;;;;;52.73;48.37;;;;;;;;;;5080134;28;20469;-86
2023/08/13 04:09:10;;;;;;;51.93;48.27;;;;;;;;;;5081269;28;20445;-86
2023/08/13 04:11:37;;;;;;;52.10;48.20;;;;;;;;;;5079544;28;20521;-86
2023/08/13 04:14:10;;;;;;;53.43;49.10;;;;;;;;;;5078991;28;20442;-86
2023/08/13 04:16:38;;;;;;;51.63;47.53;;;;;;;;;;5078802;28;20466;-86
2023/08/13 04:19:05;;;;;;;54.33;50.03;;;;;;;;;;5080583;28;20446;-86
2023/08/13 04:21:33;;;;;;;51.63;47.67;;;;;;;;;;5080442;28;20479;-87
2023/08/13 04:24:00;;;;;;;49.30;45.60;;;;;;;;;;5084852;28;20484;-85
2023/08/13 04:26:27;;;;;;;52.33;48.47;;;;;;;;;;5079076;28;20526;-83
2023/08/13 04:28:54;;;;;;;49.57;46.13;;;;;;;;;;5080515;28;20449;-83
2023/08/13 04:31:21;;;;;;;48.63;44.87;;;;;;;;;;5079149;28;20448;-82
2023/08/13 04:33:50;;;;;;;48.53;45.13;;;;;;;;;;5080365;28;20474;-83
2023/08/13 04:36:17;;;;;;;45.53;42.23;;;;;;;;;;5079273;28;20498;-83
2023/08/13 04:38:44;;;;;;;48.53;44.43;;;;;;;;;;5079105;28;20470;-83
2023/08/13 04:41:12;;;;;;;46.83;43.53;;;;;;;;;;5077944;28;20449;-83
2023/08/13 04:43:39;;;;;;;48.30;44.50;;;;;;;;;;5080511;28;20464;-83
2023/08/13 04:46:06;;;;;;;46.67;43.13;;;;;;;;;;5080506;28;20428;-83
2023/08/13 04:48:43;;;;;;;46.63;43.23;;;;;;;;;;5081797;28;20451;-83
2023/08/13 04:51:11;;;;;;;45.67;42.47;;;;;;;;;;5080957;28;20427;-83
2023/08/13 04:53:38;;;;;;;43.97;40.70;;;;;;;;;;5082944;28;20473;-83
2023/08/13 04:56:06;;;;;;;46.10;42.60;;;;;;;;;;5078301;28;20453;-83
2023/08/13 04:58:33;;;;;;;45.33;41.80;;;;;;;;;;5077331;28;20466;-83
2023/08/13 05:01:00;;;;;;;46.10;42.63;;;;;;;;;;5076763;28;20453;-83
2023/08/13 05:03:27;;;;;;;46.70;43.27;;;;;;;;;;5078248;28;20464;-83
2023/08/13 05:05:54;;;;;;;42.93;40.03;;;;;;;;;;5078555;28;20469;-82
2023/08/13 05:08:23;;;;;;;47.07;43.37;;;;;;;;;;5077262;28;20469;-83
2023/08/13 05:10:50;;;;;;;44.73;41.30;;;;;;;;;;5077173;28;20449;-83
2023/08/13 05:13:17;;;;;;;43.27;40.07;;;;;;;;;;5077416;28;20477;-83
2023/08/13 05:15:44;;;;;;;43.03;39.93;;;;;;;;;;5078431;28;20424;-82
2023/08/13 05:18:11;;;;;;;44.10;41.20;;;;;;;;;;5077797;28;20603;-83
2023/08/13 05:20:38;;;;;;;42.00;39.10;;;;;;;;;;5078110;28;20879;-83
2023/08/13 05:23:05;;;;;;;42.60;39.70;;;;;;;;;;5078347;28;20488;-83
2023/08/13 05:25:38;;;;;;;42.80;39.77;;;;;;;;;;5078032;28;21166;-80
2023/08/13 05:28:05;;;;;;;42.90;39.50;;;;;;;;;;5077271;28;20521;-83
2023/08/13 05:30:33;;;;;;;40.83;37.87;;;;;;;;;;5077709;28;20463;-83
2023/08/13 05:33:00;;;;;;;40.70;37.70;;;;;;;;;;5076991;28;20469;-83
2023/08/13 05:35:27;;;;;;;39.67;36.90;;;;;;;;;;5077134;28;20453;-83
2023/08/13 05:37:54;;;;;;;40.10;37.13;;;;;;;;;;5077487;28;20421;-83
2023/08/13 05:40:21;;;;;;;37.37;34.67;;;;;;;;;;5076498;28;20444;-83
2023/08/13 05:42:49;;;;;;;39.37;36.47;;;;;;;;;;5076859;28;20895;-83
2023/08/13 05:45:16;;;;;;;37.53;35.10;;;;;;;;;;5076993;28;20439;-83
2023/08/13 05:47:43;;;;;;;38.87;35.97;;;;;;;;;;5076559;28;20424;-84
2023/08/13 05:50:11;;;;;;;36.90;34.40;;;;;;;;;;5076997;28;20468;-83
2023/08/13 05:52:38;;;;;;;37.70;34.77;;;;;;;;;;5077230;28;20445;-82
2023/08/13 05:55:05;;;;;;;38.13;35.30;;;;;;;;;;5077276;28;20453;-83
2023/08/13 05:57:32;;;;;;;38.10;35.40;;;;;;;;;;5081082;28;20447;-82
2023/08/13 06:00:01;;;;;;;37.90;35.17;;;;;;;;;;5075990;28;20815;-83
2023/08/13 06:02:28;;;;;;;37.33;34.80;;;;;;;;;;5077388;28;20469;-83
2023/08/13 06:04:55;;;;;;;38.40;35.53;;;;;;;;;;5077687;28;20488;-83
2023/08/13 06:07:22;;;;;;;36.53;33.90;;;;;;;;;;5077135;28;20449;-83
2023/08/13 06:09:49;;;;;;;35.40;33.03;;;;;;;;;;5076974;28;20507;-83
2023/08/13 06:12:16;;;;;;;34.80;32.60;;;;;;;;;;5092800;28;20436;-83
2023/08/13 06:14:43;;;;;;;33.83;31.10;;;;;;;;;;5097506;28;20449;-83
2023/08/13 06:17:11;;;;;;;31.47;29.47;;;;;;;;;;5097482;28;20492;-83
2023/08/13 06:19:39;;;;;;;32.13;30.00;;;;;;;;;;5097430;28;20471;-83
2023/08/13 06:22:06;;;;;;;31.27;28.90;;;;;;;;;;5095990;28;20485;-83
2023/08/13 06:24:33;;;;;;;34.23;31.87;;;;;;;;;;5096631;28;20479;-83
2023/08/13 06:27:00;;;;;;;28.80;26.90;;;;;;;;;;5096532;28;20442;-83
2023/08/13 06:29:27;;;;;;;27.20;25.37;;;;;;;;;;5098067;28;20552;-83
2023/08/13 06:31:54;;;;;;;27.13;25.43;;;;;;;;;;5099301;28;20826;-83
2023/08/13 06:34:23;;;;;;;27.23;25.50;;;;;;;;;;5100276;28;20930;-82
2023/08/13 06:36:51;;;;;;;25.40;23.50;;;;;;;;;;5099827;28;20433;-84
2023/08/13 06:39:18;;;;;;;23.97;22.27;;;;;;;;;;5100077;28;20448;-81
2023/08/13 06:41:45;;;;;;;24.87;23.30;;;;;;;;;;5098375;28;20465;-83
2023/08/13 06:44:18;;;;;;;24.50;22.90;;;;;;;;;;5099599;28;20480;-82
2023/08/13 06:46:45;;;;;;;23.03;21.53;;;;;;;;;;5100446;28;20503;-83
2023/08/13 06:49:12;;;;;;;21.53;20.00;;;;;;;;;;5100458;28;20851;-82
2023/08/13 06:51:41;;;;;;;22.63;21.03;;;;;;;;;;5099808;28;20933;-83
2023/08/13 06:54:08;;;;;;;23.33;21.40;;;;;;;;;;5099592;28;20926;-83
2023/08/13 06:56:36;;;;;;;23.60;21.93;;;;;;;;;;5099025;28;20445;-82
2023/08/13 06:59:03;;;;;;;23.47;21.50;;;;;;;;;;5100627;28;20452;-83
2023/08/13 07:01:30;;;;;;;22.27;20.70;;;;;;;;;;5098644;28;20456;-83
2023/08/13 07:03:57;;;;;;;21.80;20.33;;;;;;;;;;5098638;28;20464;-83
2023/08/13 07:06:24;;;;;;;21.93;20.50;;;;;;;;;;5098549;28;20452;-83
2023/08/13 07:08:53;;;;;;;21.80;19.90;;;;;;;;;;5100040;28;20446;-83
2023/08/13 07:11:20;;;;;;;21.40;20.00;;;;;;;;;;5099028;28;20449;-82
2023/08/13 07:13:49;;;;;;;22.73;21.27;;;;;;;;;;5098217;28;20484;-83
2023/08/13 07:16:16;;;;;;;22.63;21.13;;;;;;;;;;5099405;28;20441;-82
2023/08/13 07:18:43;;;;;;;22.33;20.60;;;;;;;;;;5101614;28;20449;-82
2023/08/13 07:21:11;;;;;;;22.63;20.60;;;;;;;;;;5100873;28;20942;-82
2023/08/13 07:23:38;;;;;;;21.73;20.20;;;;;;;;;;5112025;28;20484;-83
2023/08/13 07:26:06;;;;;;;22.27;20.63;;;;;;;;;;5109702;28;20453;-83
2023/08/13 07:28:35;;;;;;;20.80;19.30;;;;;;;;;;5104533;28;20547;-82
2023/08/13 07:31:04;;;;;;;21.27;19.77;;;;;;;;;;5102702;28;20869;-83
2023/08/13 07:33:31;;;;;;;20.57;19.07;;;;;;;;;;5100473;28;20491;-83
2023/08/13 07:35:58;;;;;;;19.17;17.97;;;;;;;;;;5102226;28;20433;-82
2023/08/13 07:38:25;;;;;;;21.40;19.47;;;;;;;;;;5105232;28;20433;-83
2023/08/13 07:40:53;;;;;;;22.33;20.40;;;;;;;;;;5102201;28;20449;-83
2023/08/13 07:43:21;;;;;;;21.23;19.43;;;;;;;;;;5103322;28;20464;-82
2023/08/13 07:45:48;;;;;;;19.63;18.20;;;;;;;;;;5103287;28;20475;-82
2023/08/13 07:48:15;;;;;;;18.57;17.40;;;;;;;;;;5101522;28;20448;-85
2023/08/13 07:50:42;;;;;;;18.80;17.40;;;;;;;;;;5100808;28;20433;-83
2023/08/13 07:53:09;;;;;;;17.83;16.93;;;;;;;;;;5101387;28;20480;-83
2023/08/13 07:55:36;;;;;;;17.73;16.60;;;;;;;;;;5100638;28;20469;-83
2023/08/13 07:58:03;;;;;;;19.03;17.53;;;;;;;;;;5102851;28;20444;-84
2023/08/13 08:00:32;;;;;;;19.27;17.77;;;;;;;;;;5099731;28;20441;-83
2023/08/13 08:02:59;;;;;;;17.87;16.77;;;;;;;;;;5102310;28;20465;-83
2023/08/13 08:05:26;;;;;;;18.40;17.00;;;;;;;;;;5106078;28;20553;-83
2023/08/13 08:07:53;;;;;;;19.30;18.00;;;;;;;;;;5100794;28;20448;-83
2023/08/13 08:10:20;;;;;;;19.17;17.77;;;;;;;;;;5101483;28;20441;-83
2023/08/13 08:12:47;;;;;;;18.40;17.10;;;;;;;;;;5100769;28;20467;-83
2023/08/13 08:15:14;;;;;;;18.30;16.90;;;;;;;;;;5101522;28;20974;-83
2023/08/13 08:17:42;;;;;;;18.20;17.00;;;;;;;;;;5100830;28;20445;-82
2023/08/13 08:20:10;;;;;;;17.67;16.33;;;;;;;;;;5100004;28;20456;-83
2023/08/13 08:22:37;;;;;;;18.47;17.40;;;;;;;;;;5099500;28;20985;-83
2023/08/13 08:25:08;;;;;;;18.27;16.70;;;;;;;;;;5102532;28;20495;-83
2023/08/13 08:27:35;;;;;;;18.13;17.03;;;;;;;;;;5102226;28;20425;-83
2023/08/13 08:30:02;;;;;;;18.30;17.00;;;;;;;;;;5103642;28;21131;-83
2023/08/13 08:32:29;;;;;;;17.93;16.30;;;;;;;;;;5101963;28;20512;-83
2023/08/13 08:34:58;;;;;;;17.80;16.60;;;;;;;;;;5100188;28;20451;-83
2023/08/13 08:37:25;;;;;;;18.27;16.90;;;;;;;;;;5099597;28;20479;-82
2023/08/13 08:39:52;;;;;;;17.73;16.57;;;;;;;;;;5102148;28;20456;-83
2023/08/13 08:42:20;;;;;;;16.97;15.83;;;;;;;;;;5101542;28;20526;-82
2023/08/13 08:44:47;;;;;;;17.10;16.00;;;;;;;;;;5100695;28;20485;-82
2023/08/13 08:47:15;;;;;;;18.53;16.90;;;;;;;;;;5097984;28;20811;-83
2023/08/13 08:49:44;;;;;;;17.70;16.53;;;;;;;;;;5098727;28;20449;-83
2023/08/13 08:52:12;;;;;;;17.63;16.53;;;;;;;;;;5099220;28;20542;-84
2023/08/13 08:54:40;;;;;;;17.47;16.53;;;;;;;;;;5100278;28;20441;-83
2023/08/13 08:57:07;;;;;;;18.93;17.60;;;;;;;;;;5098701;28;20464;-83
2023/08/13 08:59:34;;;;;;;17.90;16.83;;;;;;;;;;5100790;28;20457;-83
2023/08/13 09:02:01;;;;;;;18.30;17.23;;;;;;;;;;5100238;28;20469;-83
2023/08/13 09:04:28;;;;;;;18.43;17.33;;;;;;;;;;5100474;28;20499;-82
2023/08/13 09:06:59;;;;;;;18.80;17.60;;;;;;;;;;5103145;28;20476;-82
2023/08/13 09:09:28;;;;;;;17.83;16.93;;;;;;;;;;5100984;28;20459;-83
2023/08/13 09:11:56;;;;;;;18.03;16.83;;;;;;;;;;5097494;28;20518;-82
2023/08/13 09:14:24;;;;;;;18.10;17.00;;;;;;;;;;5098251;28;20437;-83
2023/08/13 09:16:52;;;;;;;19.20;18.00;;;;;;;;;;5098317;28;20442;-83
2023/08/13 09:19:20;;;;;;;18.80;17.70;;;;;;;;;;5097555;28;20469;-83
2023/08/13 09:21:49;;;;;;;18.00;16.60;;;;;;;;;;5098241;28;20437;-83
2023/08/13 09:24:17;;;;;;;20.10;18.60;;;;;;;;;;5098447;28;20427;-83
2023/08/13 09:26:53;;;;;;;18.50;17.10;;;;;;;;;;5095981;28;20452;-84
2023/08/13 09:29:20;;;;;;;18.73;17.50;;;;;;;;;;5098548;28;20934;-83
2023/08/13 09:31:48;;;;;;;18.50;17.40;;;;;;;;;;5097652;28;20528;-83
2023/08/13 09:34:15;;;;;;;19.50;18.27;;;;;;;;;;5098248;28;20441;-83
2023/08/13 09:36:42;;;;;;;20.63;18.67;;;;;;;;;;5098672;28;20519;-83
2023/08/13 09:39:09;;;;;;;20.67;19.03;;;;;;;;;;5098696;28;20452;-83
2023/08/13 09:41:36;;;;;;;19.17;17.83;;;;;;;;;;5097362;28;20445;-81
2023/08/13 09:44:08;;;;;;;19.57;18.27;;;;;;;;;;5098676;28;20444;-83
2023/08/13 09:46:36;;;;;;;18.90;17.80;;;;;;;;;;5097722;28;20417;-83
2023/08/13 09:49:04;;;;;;;18.73;17.50;;;;;;;;;;5098232;28;20791;-83
2023/08/13 09:51:33;;;;;;;18.53;17.33;;;;;;;;;;5097643;28;20468;-83
2023/08/13 09:54:05;;;;;;;18.23;17.13;;;;;;;;;;5099919;28;20477;-83
2023/08/13 09:56:32;;;;;;;19.70;18.50;;;;;;;;;;5103676;28;20490;-82
2023/08/13 09:59:00;;;;;;;19.00;17.80;;;;;;;;;;5101229;28;20976;-82
2023/08/13 10:01:29;;;;;;;20.20;18.87;;;;;;;;;;5099013;28;20812;-83
2023/08/13 10:03:57;;;;;;;19.20;18.00;;;;;;;;;;5100384;28;20451;-82
2023/08/13 10:06:24;;;;;;;19.60;18.27;;;;;;;;;;5104691;28;20502;-82
2023/08/13 10:08:52;;;;;;;20.10;18.87;;;;;;;;;;5105664;28;20463;-83
2023/08/13 10:11:22;;;;;;;19.10;17.73;;;;;;;;;;5103608;28;20504;-83
2023/08/13 10:13:49;;;;;;;18.30;17.17;;;;;;;;;;5103182;28;20475;-83
2023/08/13 10:16:17;;;;;;;19.27;17.97;;;;;;;;;;5102346;28;20497;-83
2023/08/13 10:18:48;;;;;;;19.47;18.23;;;;;;;;;;5102315;28;20440;-83
2023/08/13 10:21:15;;;;;;;19.03;17.70;;;;;;;;;;5100213;28;20463;-81
2023/08/13 10:23:42;;;;;;;19.43;17.90;;;;;;;;;;5101410;28;20456;-83
2023/08/13 10:26:09;;;;;;;20.17;18.47;;;;;;;;;;5101770;28;20469;-83
2023/08/13 10:28:36;;;;;;;20.70;18.70;;;;;;;;;;5101531;28;20856;-83
2023/08/13 10:31:25;;;;;;;20.63;19.20;;;;;;;;;;5100804;28;20433;-83
2023/08/13 10:34:08;;;;;;;20.73;19.30;;;;;;;;;;5100779;28;20464;-83
2023/08/13 10:36:51;;;;;;;21.03;19.60;;;;;;;;;;5101005;28;20429;-83
2023/08/13 10:39:31;;;;;;;20.30;18.77;;;;;;;;;;5099989;28;20437;-82
2023/08/13 10:41:58;;;;;;;20.40;18.80;;;;;;;;;;5101024;28;20493;-83
2023/08/13 10:44:29;;;;;;;19.63;18.33;;;;;;;;;;5100958;28;20433;-82
2023/08/13 10:46:56;;;;;;;21.13;19.73;;;;;;;;;;5100637;28;20429;-82
2023/08/13 10:49:25;;;;;;;19.97;18.57;;;;;;;;;;5101428;28;20449;-83
2023/08/13 10:51:53;;;;;;;20.53;19.23;;;;;;;;;;5099297;28;20460;-82
2023/08/13 10:54:20;;;;;;;20.80;19.47;;;;;;;;;;5100546;28;20451;-82
2023/08/13 10:56:54;;;;;;;20.33;19.13;;;;;;;;;;5096983;28;20453;-83
2023/08/13 10:59:28;;;;;;;21.60;20.20;;;;;;;;;;5100822;28;20429;-83
2023/08/13 11:02:10;;;;;;;22.33;20.63;;;;;;;;;;5100124;28;20829;-83
2023/08/13 11:04:39;;;;;;;21.23;19.73;;;;;;;;;;5099547;28;20435;-84
2023/08/13 11:07:07;;;;;;;20.80;19.60;;;;;;;;;;5097951;28;20468;-83
2023/08/13 11:09:34;;;;;;;21.70;20.07;;;;;;;;;;5097753;28;20441;-82
2023/08/13 11:12:01;;;;;;;21.50;20.30;;;;;;;;;;5097497;28;20461;-83
2023/08/13 11:14:29;;;;;;;22.57;21.17;;;;;;;;;;5104409;28;20439;-82
2023/08/13 11:16:57;;;;;;;21.73;20.40;;;;;;;;;;5107626;28;20440;-83
2023/08/13 11:19:24;;;;;;;21.20;19.90;;;;;;;;;;5101666;28;20433;-83
2023/08/13 11:21:54;;;;;;;22.20;20.60;;;;;;;;;;5099948;28;20472;-77
2023/08/13 11:24:21;;;;;;;21.43;20.00;;;;;;;;;;5101361;28;20500;-78
2023/08/13 11:26:49;;;;;;;20.90;19.57;;;;;;;;;;5099351;28;20492;-78
2023/08/13 11:29:16;;;;;;;20.90;19.60;;;;;;;;;;5100845;28;20455;-79
2023/08/13 11:31:45;;;;;;;21.87;20.17;;;;;;;;;;5099649;28;20448;-78
2023/08/13 11:34:12;;;;;;;21.00;19.60;;;;;;;;;;5099735;28;20508;-79
2023/08/13 11:36:39;;;;;;;20.73;19.43;;;;;;;;;;5100626;28;20444;-79
2023/08/13 11:39:07;;;;;;;21.87;20.37;;;;;;;;;;5099697;28;20459;-79
2023/08/13 11:41:35;;;;;;;22.43;21.10;;;;;;;;;;5098820;28;20506;-80
2023/08/13 11:44:03;;;;;;;21.77;20.47;;;;;;;;;;5099702;28;20456;-80
2023/08/13 11:46:50;;;;;;;21.10;19.47;;;;;;;;;;5098029;28;20489;-79
2023/08/13 11:49:17;;;;;;;20.50;19.30;;;;;;;;;;5098984;28;20438;-79
2023/08/13 11:51:45;;;;;;;21.23;19.93;;;;;;;;;;5098838;28;20444;-79
2023/08/13 11:54:13;;;;;;;22.27;20.70;;;;;;;;;;5099381;28;20447;-79
2023/08/13 11:56:41;;;;;;;20.70;19.40;;;;;;;;;;5097584;28;20433;-79
2023/08/13 11:59:08;;;;;;;20.40;19.20;;;;;;;;;;5099470;28;20512;-79
2023/08/13 12:01:35;;;;;;;21.90;20.40;;;;;;;;;;5097270;28;20452;-79
2023/08/13 12:04:04;;;;;;;21.97;20.23;;;;;;;;;;5098932;28;20966;-79
2023/08/13 12:06:32;;;;;;;22.07;20.10;;;;;;;;;;5098161;28;20481;-80
2023/08/13 12:09:00;;;;;;;21.27;19.97;;;;;;;;;;5098021;28;20938;-79
2023/08/13 12:11:28;;;;;;;21.40;19.97;;;;;;;;;;5098653;28;20455;-78
2023/08/13 12:13:57;;;;;;;21.73;20.33;;;;;;;;;;5099573;28;20448;-80
2023/08/13 12:16:24;;;;;;;21.50;20.10;;;;;;;;;;5099321;28;20499;-78
2023/08/13 12:18:51;;;;;;;21.07;19.57;;;;;;;;;;5097275;28;20452;-79
2023/08/13 12:21:18;;;;;;;21.53;20.03;;;;;;;;;;5098152;28;20464;-79
2023/08/13 12:23:45;;;;;;;21.23;19.63;;;;;;;;;;5097630;28;20966;-79
2023/08/13 12:26:12;;;;;;;21.77;20.27;;;;;;;;;;5096827;28;20488;-79
2023/08/13 12:28:41;;;;;;;22.67;21.17;;;;;;;;;;5097428;28;20455;-79
2023/08/13 12:31:08;;;;;;;20.50;19.33;;;;;;;;;;5096632;28;20451;-80
2023/08/13 12:33:35;;;;;;;21.10;19.80;;;;;;;;;;5097344;28;20472;-79
2023/08/13 12:36:02;;;;;;;20.30;19.10;;;;;;;;;;5097887;28;20472;-78
2023/08/13 12:38:31;;;;;;;21.53;20.13;;;;;;;;;;5098002;28;20516;-79
2023/08/13 12:40:58;;;;;;;22.53;21.10;;;;;;;;;;5096955;28;20448;-79
2023/08/13 12:43:25;;;;;;;23.70;21.93;;;;;;;;;;5097160;28;20477;-79
2023/08/13 12:45:54;;;;;;;21.57;20.27;;;;;;;;;;5099049;28;20481;-78
2023/08/13 12:48:21;;;;;;;21.23;19.83;;;;;;;;;;5098801;28;20445;-79
2023/08/13 12:50:48;;;;;;;21.00;19.80;;;;;;;;;;5098239;28;20451;-78
2023/08/13 12:53:15;;;;;;;21.60;20.17;;;;;;;;;;5097779;28;20469;-79
2023/08/13 12:55:42;;;;;;;21.10;19.90;;;;;;;;;;5099603;28;20930;-79
2023/08/13 12:58:09;;;;;;;21.77;20.47;;;;;;;;;;5097698;28;20456;-80
2023/08/13 13:00:36;;;;;;;21.53;20.00;;;;;;;;;;5096020;28;20451;-79
2023/08/13 13:03:05;;;;;;;21.33;19.87;;;;;;;;;;5098456;28;20472;-80
2023/08/13 13:05:32;;;;;;;20.60;19.40;;;;;;;;;;5100365;28;20511;-79
2023/08/13 13:07:59;;;;;;;20.33;18.80;;;;;;;;;;5103245;28;20452;-79
2023/08/13 13:10:26;;;;;;;21.53;20.03;;;;;;;;;;5098499;28;20468;-78
2023/08/13 13:12:53;;;;;;;22.13;20.47;;;;;;;;;;5102341;28;20863;-78
2023/08/13 13:15:21;;;;;;;21.97;20.57;;;;;;;;;;5100002;28;20453;-79
2023/08/13 13:17:48;;;;;;;21.10;19.70;;;;;;;;;;5103412;28;20419;-78
2023/08/13 13:20:18;;;;;;;20.83;19.53;;;;;;;;;;5096850;28;20538;-81
2023/08/13 13:22:45;;;;;;;21.57;20.17;;;;;;;;;;5094178;28;20476;-78
2023/08/13 13:25:12;;;;;;;22.13;20.63;;;;;;;;;;5096081;28;20813;-79
2023/08/13 13:27:40;;;;;;;21.90;20.50;;;;;;;;;;5094290;28;21210;-78
2023/08/13 13:30:08;;;;;;;22.27;20.73;;;;;;;;;;5096524;28;20452;-79
2023/08/13 13:32:35;;;;;;;22.37;20.77;;;;;;;;;;5096832;28;20465;-79
2023/08/13 13:35:03;;;;;;;21.37;19.90;;;;;;;;;;5097218;28;21150;-79
2023/08/13 13:37:32;;;;;;;21.83;20.40;;;;;;;;;;5096617;28;20468;-82
2023/08/13 13:39:59;;;;;;;22.53;20.90;;;;;;;;;;5099101;28;20860;-81
2023/08/13 13:42:26;;;;;;;21.00;19.80;;;;;;;;;;5100621;28;20518;-77
2023/08/13 13:44:53;;;;;;;22.00;20.53;;;;;;;;;;5099767;28;20429;-77
2023/08/13 13:47:20;;;;;;;22.30;20.80;;;;;;;;;;5099934;28;20476;-81
2023/08/13 13:49:47;;;;;;;22.17;20.77;;;;;;;;;;5100601;28;20437;-77
2023/08/13 13:52:14;;;;;;;22.80;20.60;;;;;;;;;;5100132;28;20460;-79
2023/08/13 13:54:45;;;;;;;21.40;20.07;;;;;;;;;;5104393;28;20509;-78
2023/08/13 13:57:13;;;;;;;22.93;21.23;;;;;;;;;;5088648;28;20553;-79
2023/08/13 13:59:40;;;;;;;22.07;20.57;;;;;;;;;;5080007;28;20457;-80
2023/08/13 14:02:07;;;;;;;21.40;19.73;;;;;;;;;;5081297;28;20464;-78
2023/08/13 14:04:34;;;;;;;21.87;20.30;;;;;;;;;;5081730;28;20456;-79
2023/08/13 14:07:01;;;;;;;21.80;20.50;;;;;;;;;;5082285;28;20488;-79
2023/08/13 14:09:28;;;;;;;22.17;20.80;;;;;;;;;;5089922;28;20448;-79
2023/08/13 14:11:57;;;;;;;22.87;21.17;;;;;;;;;;5102285;28;20458;-79
2023/08/13 14:14:25;;;;;;;23.53;21.70;;;;;;;;;;5102011;28;20964;-78
2023/08/13 14:16:52;;;;;;;23.47;21.60;;;;;;;;;;5102509;28;20448;-79
2023/08/13 14:19:19;;;;;;;22.40;21.10;;;;;;;;;;5101490;28;20981;-80